横田飛行場の過去48時間の天気

横田飛行場 (Yokota)

現在時刻: 2/25 15:23 JST (2/25 06:23 UTC) 以下の時間は現地時間です。

過去48時間のMETAR気象情報
時間 風向 風速(m/s) 視程 気温(℃) 湿度(%) 気圧(hPa) 天気現象
25 14:56 2 10km以上 12 43 1020.4
25 13:56 北東 2 10km以上 11.9 43 1020.7
25 12:56 2 10km以上 12.1 42 1021
25 11:56 東北東 2 10km以上 12.9 39 1022
25 10:56 3 10km以上 13.2 39 1022.6
25 09:56 静穏 0 10km以上 12.9 39 1022.6
25 08:56 静穏 0 10km以上 10.8 48 1023.4
25 07:56 静穏 0 10km以上 7 60 1023.4
25 06:56 西北西 2 10km以上 4.6 71 1022.8
25 05:56 西北西 3 10km以上 4.4 73 1022.5
25 04:56 西 2 10km以上 4.4 73 1021.7
25 03:56 静穏 0 10km以上 4.4 74 1021.7
25 02:56 西北西 2 10km以上 4.8 74 1020.9
25 01:56 西 2 10km以上 5.4 72 1021.3
25 00:56 西 2 10km以上 5.5 73 1022
24 23:56 西 2 10km以上 5.6 74 1022
24 22:56 西 3 10km以上 6 75 1022.4
24 21:56 西 3 10km以上 6.8 73 1022
24 20:56 静穏 0 10km以上 7.8 72 1022.8
24 19:56 西 2 10km以上 9 67 1022.5
24 18:56 静穏 0 10km以上 9.9 63 1022.3
24 17:56 南南西 3 10km以上 9.9 62 1021.9
24 16:56 5 10km以上 11.8 53 1021.1
24 15:56 4 10km以上 13.7 43 1021
24 14:56 南南西 4 10km以上 14.2 38 1021
24 13:56 3 10km以上 14.8 37 1021.3
24 12:56 2 10km以上 13.7 39 1022.1
24 10:56 南西 3 10km以上 12 39 1023
24 09:58 西南西 2 10km以上 14 29 1024
24 08:56 静穏 0 10km以上 8.6 34 1024.9
24 07:56 西北西 2 10km以上 4.5 51 1024.9
24 06:56 静穏 0 10km以上 -0.8 70 1024.8
24 05:56 静穏 0 10km以上 1.2 63 1024
24 04:56 西 4 10km以上 2.2 57 1023.6
24 04:00 静穏 0 10km以上 2 64 1022
24 02:56 静穏 0 10km以上 2.2 64 1022.8
24 01:56 静穏 0 10km以上 2.4 63 1023
24 00:56 西北西 3 10km以上 2.9 62 1023
23 23:56 北北西 2 10km以上 3 54 1023
23 22:56 北北西 3 10km以上 3.6 44 1023
23 21:56 5 10km以上 3.7 45 1022.8
23 20:56 北北東 6 10km以上 5.2 39 1022.1
23 19:56 北北東 8 10km以上 6.8 35 1021.4
23 18:56 北北東 8 10km以上 7.6 33 1020.9
23 17:56 北東 6 10km以上 8.6 30 1019.8
23 16:56 北北東 9 10km以上 10.8 27 1018.3
23 15:56 10 10km以上 13.5 22 1016.9
RJTY 250556Z AUTO 01004KT 10SM OVC095 12/00 A3011 RMK AO2 SLP204 T01201002 10134 20109 56017 FZRANO $
RJTY 250456Z AUTO 05004KT 10SM OVC100 12/00 A3012 RMK AO2 SLP207 T01191003 FZRANO $
RJTY 250356Z AUTO 10003KT 10SM SCT100 12/00 A3013 RMK AO2 SLP210 T01211004 FZRANO $
RJTY 250256Z AUTO 07004KT 10SM FEW100 SCT120 13/M01 A3016 RMK AO2 SLP220 T01291007 55014 FZRANO $
RJTY 250156Z AUTO 08005KT 10SM FEW130 13/00 A3018 RMK AO2 SLP226 T01321005 FZRANO $
RJTY 250056Z AUTO 00000KT 10SM FEW150 SCT170 13/M01 A3018 RMK AO2 SLP226 T01291007 FZRANO $
RJTY 242356Z AUTO 00000KT 10SM FEW160 11/00 A3020 RMK AO2 SLP234 T01080002 10108 20041 51012 FZRANO $
RJTY 242256Z AUTO 00000KT 10SM CLR 07/00 A3020 RMK AO2 SLP234 T00701002 FZRANO $
RJTY 242156Z AUTO 30003KT 10SM CLR 05/00 A3018 RMK AO2 SLP228 T00461002 FZRANO $
RJTY 242056Z AUTO 29005KT 10SM CLR 04/00 A3017 RMK AO2 SLP225 T00440000 52011 FZRANO $
RJTY 241956Z AUTO 28003KT 10SM CLR 04/00 A3015 RMK AO2 SLP217 T00440000 FZRANO $
RJTY 241856Z AUTO 00000KT 10SM CLR 04/00 A3015 RMK AO2 SLP217 T00440002 FZRANO $
RJTY 241756Z AUTO 29003KT 10SM CLR 05/01 A3013 RMK AO2 SLP209 T00480006 10079 20036 57010 FZRANO $
RJTY 241656Z AUTO 28004KT 10SM CLR 05/01 A3014 RMK AO2 SLP213 T00540008 FZRANO $
RJTY 241556Z AUTO 28004KT 10SM CLR 06/01 A3016 RMK AO2 SLP220 T00550010 FZRANO $
RJTY 241456Z AUTO 28003KT 10SM CLR 06/01 A3016 RMK AO2 SLP220 T00560013 401481009 58004 FZRANO $
RJTY 241356Z AUTO 27006KT 10SM CLR 06/02 A3017 RMK AO2 SLP224 T00600019 FZRANO $
RJTY 241256Z AUTO 27005KT 10SM CLR 07/02 A3018 RMK AO2 SLPNO T00680023 FZRANO $
RJTY 241156Z AUTO 00000KT 10SM CLR 08/03 A3018 RMK AO2 SLP228 T00780031 10144 20077 52008 FZRANO $
RJTY 241056Z AUTO 28004KT 10SM CLR 09/03 A3017 RMK AO2 SLP225 T00900032 FZRANO $
RJTY 240956Z AUTO 00000KT 10SM CLR 10/03 A3016 RMK AO2 SLP223 T00990032 FZRANO $
RJTY 240856Z AUTO 20006KT 10SM CLR 10/03 A3015 RMK AO2 SLP219 T00990030 53003 FZRANO $
RJTY 240756Z AUTO 19009KT 10SM CLR 12/03 A3013 RMK AO2 SLP211 T01180025 FZRANO $
RJTY 240656Z AUTO 17008KT 10SM CLR 14/01 A3014 RMK AO2 SLPNO T01370013 FZRANO $
RJTY 240556Z AUTO 21008KT 10SM CLR 14/00 A3015 RMK AO2 SLPNO T01420001 10148 20087 55015 FZRANO $
RJTY 240456Z AUTO 18005KT 10SM CLR 15/00 A3014 RMK AO2 SLP213 T01480002 FZRANO $
RJTY 240356Z AUTO 17004KT 10SM CLR 14/00 A3016 RMK AO2 SLP221 T01370000 FZRANO $
RJTY 240156Z AUTO 23006KT 10SM CLR 12/M01 A3021 RMK AO2 SLPNO T01201015 FZRANO $
RJTY 240058Z 24003KT 10SM CLR 14/M04 A3024 RMK AO2A SLPNO $
RJTY 232356Z AUTO 00000KT 10SM CLR 09/M06 A3024 RMK AO2 SLP249 T00861064 10086 21009 51010 FZRANO $
RJTY 232256Z AUTO 29003KT 10SM CLR 05/M05 A3024 RMK AO2 SLP249 T00451048 FZRANO $
RJTY 232156Z AUTO 00000KT 10SM CLR M01/M06 A3023 RMK AO2 SLP248 T10081056 FZRANO $
RJTY 232056Z AUTO 00000KT 10SM CLR 01/M05 A3021 RMK AO2 SLP240 T00121051 FZRANO $
RJTY 231956Z AUTO 28007KT 10SM M 02/M05 A3020 RMK AO2 SLP236 T00221054 FZRANO $
RJTY 231900Z 00000KT 10SM CLR 02/M04 A3018 RMK AO2A RVRNO ALSTG ESTMD WND DATA ESTMD
RJTY 231756Z AUTO 00000KT 10SM CLR 02/M04 A3018 RMK AO2 SLP228 T00221039 10059 20017 58002 FZRANO $
RJTY 231656Z AUTO 00000KT 10SM CLR 02/M04 A3019 RMK AO2 SLP230 T00241039 FZRANO $
RJTY 231556Z AUTO 29005KT 10SM CLR 03/M04 A3019 RMK AO2 SLP230 T00291037 FZRANO $
RJTY 231456Z AUTO 33003KT 10SM CLR 03/M05 A3019 RMK AO2 SLP230 T00301054 401590017 50010 FZRANO $
RJTY 231356Z AUTO 34005KT 10SM CLR 04/M07 A3019 RMK AO2 SLP230 T00361075 FZRANO $
RJTY 231256Z AUTO 01009KT 10SM CLR 04/M07 A3018 RMK AO2 SLP228 T00371071 FZRANO $
RJTY 231156Z AUTO 02012KT 10SM CLR 05/M08 A3016 RMK AO2 SLP221 T00521076 10147 20047 52024 FZRANO $
RJTY 231056Z AUTO 02016KT 10SM CLR 07/M08 A3014 RMK AO2 SLP214 T00681076 FZRANO $
RJTY 230956Z AUTO 03015KT 10SM CLR 08/M08 A3012 RMK AO2 SLP209 T00761077 FZRANO $
RJTY 230856Z AUTO 04012KT 10SM CLR 09/M08 A3009 RMK AO2 SLP198 T00861080 52035 FZRANO $
RJTY 230756Z AUTO 02018G22KT 10SM CLR 11/M07 A3005 RMK AO2 SLP183 T01081075 FZRANO $
RJTY 230656Z AUTO 01020KT 10SM CLR 14/M08 A3001 RMK AO2 SLP169 T01351078 FZRANO $